Nearby METAR Reports

 

KSJC - San Jose, California, USA
Distance from station: NE 9mi, 14km
Updated: Wed, 23-Oct-2019 7:53am PDT
Few Clouds
Few Clouds
 Wind from calm
Wind: Calm
Temperature: 57°F , 14°C
Dew Point: 50°F , 10°C
Humidity: 77%
Barometer: 30.02 inHg , 1016.6 hPa
Clouds: Few Clouds
Visibility: 10 miles , 16 km
Cloud details: Few Clouds 8000 ft
2019/10/23 14:53 KSJC 231453Z 00000KT 10SM FEW080 14/10 A3002 RMK AO2 SLP163 T01440100 55003
KNUQ - Moffett Nas/Mtn, California, USA
Distance from station: N 9mi, 14km
Updated: Wed, 23-Oct-2019 7:56am PDT

 
Barometer: 30.02 inHg , 1016.6 hPa
2019/10/23 14:56 KNUQ 231456Z A3002 RMK AO2 SLP170 56003 PWINO $
 
KPAO - Palo Alto, California, USA
Distance from station: NNW 14mi, 23km
Updated: Wed, 23-Oct-2019 7:47am PDT
Clear
Clear
 Wind from calm
Wind: Calm
Temperature: 55°F , 13°C
Dew Point: 46°F , 8°C
Humidity: 72%
Barometer: 30.02 inHg , 1016.6 hPa
Clouds: Clear
Visibility: 10 miles , 16 km
2019/10/23 14:47 KPAO 231447Z 00000KT 10SM SKC 13/08 A3002
KRHV - San Jose/Reid, California, USA
Distance from station: ENE 12mi, 19km
Updated: Wed, 23-Oct-2019 7:47am PDT
Clear
Clear
 Wind from calm
Wind: Calm
Temperature: 55°F , 13°C
Dew Point: 46°F , 8°C
Humidity: 72%
Barometer: 30.02 inHg , 1016.6 hPa
Clouds: Clear
Visibility: 10 miles , 16 km
2019/10/23 14:47 KRHV 231447Z 00000KT 10SM SKC 13/08 A3002
 
KOAK - Oakland, California, USA
Distance from station: NNW 31mi, 50km
Updated: Wed, 23-Oct-2019 7:53am PDT
Few Clouds
Few Clouds
 Wind from calm
Wind: Calm
Temperature: 54°F , 12°C
Dew Point: 50°F , 10°C
Humidity: 88%
Barometer: 30.03 inHg , 1016.9 hPa
Clouds: Few Clouds
Visibility: 10 miles , 16 km
Cloud details: Few Clouds 20000 ft
2019/10/23 14:53 KOAK 231453Z 00000KT 10SM FEW200 12/10 A3003 RMK AO2 SLP168 T01220100 53002
KSQL - San Carlos Airpo, California, USA
Distance from station: NW 21mi, 34km
Updated: Wed, 23-Oct-2019 7:47am PDT
Clear
Clear
 Wind from calm
Wind: Calm
Temperature: 59°F , 15°C
Dew Point: 45°F , 7°C
Humidity: 59%
Barometer: 30.03 inHg , 1016.9 hPa
Clouds: Clear
Visibility: 10 miles , 16 km
2019/10/23 14:47 KSQL 231447Z 00000KT 10SM SKC 15/07 A3003
 
KSFO - San Francisco, California, USA
Distance from station: NW 30mi, 49km
Updated: Wed, 23-Oct-2019 7:56am PDT
Few Clouds
Few Clouds
 Wind from calm
Wind: Calm
Temperature: 61°F , 16°C
Dew Point: 50°F , 10°C
Humidity: 68%
Barometer: 30.01 inHg , 1016.3 hPa
Clouds: Few Clouds
Visibility: 10 miles , 16 km
Cloud details: Few Clouds 20000 ft
2019/10/23 14:56 KSFO 231456Z 00000KT 10SM FEW200 16/10 A3001 RMK AO2 SLP163 T01610100 55002
KE16 - San Martin, California, USA
Distance from station: ESE 27mi, 43km
Updated: Wed, 23-Oct-2019 8:05am PDT
Haze, Clear
Haze, Clear
 Wind from calm
Wind: Calm
Temperature: 52°F , 11°C
Dew Point: 41°F , 5°C
Humidity: 67%
Barometer: 30.04 inHg , 1017.3 hPa
Summary: Haze
Clouds: Clear
Visibility: 4 miles , 6 km
2019/10/23 15:05 KE16 231505Z AUTO 00000KT 4SM HZ CLR 11/05 A3004 RMK AO2
 
KWVI - Watsonville, California, USA
Distance from station: SSE 27mi, 44km
Updated: Wed, 23-Oct-2019 7:53am PDT
Clear
Clear
 Wind from NNW
Wind: NNW 3 mph , 6 km/h
Temperature: 55°F , 13°C
Dew Point: 45°F , 7°C
Humidity: 67%
Barometer: 30.01 inHg , 1016.3 hPa
Clouds: Clear
Visibility: 10 miles , 16 km
2019/10/23 14:53 KWVI 231453Z AUTO 34003KT 10SM CLR 13/07 A3001 RMK AO2 SLP163 T01280067 53001
KHAF - Half Moon Bay, California, USA
Distance from station: WNW 31mi, 50km
Updated: Wed, 23-Oct-2019 8:20am PDT
Mist, Few clouds
Mist, Few clouds
 Wind from calm
Wind: Calm
Temperature: 50°F , 10°C
Dew Point: 48°F , 9°C
Humidity: 94%
Barometer: 30.02 inHg , 1016.6 hPa
Summary: Mist
Clouds: Few Clouds
Visibility: 5 miles , 8 km
Cloud details: Few Clouds 200 ft
2019/10/23 15:20 KHAF 231520Z AUTO 00000KT 5SM BR FEW002 10/09 A3002 RMK AO2
 
KHWD - Hayward, California, USA
Distance from station: N 28mi, 44km
Updated: Wed, 23-Oct-2019 7:54am PDT
Clear
Clear
 Wind from calm
Wind: Calm
Temperature: 55°F , 13°C
Dew Point: 45°F , 7°C
Humidity: 67%
Barometer: 30.02 inHg , 1016.6 hPa
Clouds: Clear
Visibility: 10 miles , 16 km
2019/10/23 14:54 KHWD 231454Z 00000KT 10SM CLR 13/07 A3002 RMK AO2 SLP173 T01330072 56000
KLVK - Livermore, California, USA
Distance from station: NNE 31mi, 51km
Updated: Wed, 23-Oct-2019 7:53am PDT
Clear
Clear
 Wind from SSE
Wind: SSE 6 mph , 9 km/h
Temperature: 66°F , 19°C
Dew Point: 46°F , 8°C
Humidity: 49%
Barometer: 30.02 inHg , 1016.6 hPa
Clouds: Clear
Visibility: 10 miles , 16 km
2019/10/23 14:53 KLVK 231453Z 16005KT 10SM CLR 19/08 A3002 RMK AO2 SLP161 T01890083 58003